Terminal Aerodrome Forecast
Issued by NWS

Home | Current Version | Previous Version | Text Only | Print | Product List | Glossary On
Versions: 1 2 3 4 5 6 7 8 9 10 11 12 13 14 15 16 17 18 19 20
000
FTAK31 PANC 290522
TAFAVD
TAF
PAVD 290522Z 2906/3006 00000KT 3/4SM -SN VV003
     FM291700 VRB03KT 2SM -SNRA BR SCT001 OVC012
     FM300100 VRB03KT P6SM SCT012 BKN022
      TEMPO 3001/3004 4SM -SN BKN012=

USA.gov is the U.S. government's official web portal to all federal, state and local government web resources and services.